Time;durP1;ratioP1;P1;durP2;ratioP2;P2;SDS_P1;SDS_P2;PMS_P1;PMS_P2;Temp;Humidity;BMP_temperature;BMP_pressure;BME280_temperature;BME280_humidity;BME280_pressure;Samples;Min_cycle;Max_cycle;Signal;HPM_P1;HPM_P2
2022/05/16 00:01:56;;;;;;;7.45;2.28;;;23.30;57.40;;;;;;5012795;28;20033;-63
2022/05/16 00:04:22;;;;;;;3.42;1.73;;;23.40;57.10;;;;;;5013906;28;20026;-59
2022/05/16 00:06:48;;;;;;;3.45;1.27;;;23.40;57.00;;;;;;5013805;28;20416;-62
2022/05/16 00:09:14;;;;;;;7.07;1.88;;;23.30;57.30;;;;;;5013732;28;20125;-64
2022/05/16 00:11:39;;;;;;;4.22;1.90;;;23.30;57.30;;;;;;5013548;28;20030;-59
2022/05/16 00:14:05;;;;;;;4.65;1.80;;;23.30;57.20;;;;;;5013878;28;20032;-63
2022/05/16 00:16:31;;;;;;;4.18;1.60;;;23.30;57.20;;;;;;5013730;28;20475;-63
2022/05/16 00:18:57;;;;;;;3.47;1.90;;;23.40;57.30;;;;;;5012757;28;20112;-64
2022/05/16 00:21:22;;;;;;;4.55;1.73;;;23.30;57.30;;;;;;5013737;28;20101;-63
2022/05/16 00:23:48;;;;;;;3.80;1.55;;;23.30;57.50;;;;;;5013613;28;20376;-63
2022/05/16 00:26:14;;;;;;;4.35;2.05;;;23.30;57.50;;;;;;5012825;28;20442;-63
2022/05/16 00:28:39;;;;;;;2.78;1.67;;;23.10;57.90;;;;;;5013569;28;20037;-63
2022/05/16 00:31:05;;;;;;;4.82;1.83;;;23.20;57.90;;;;;;5013531;28;20032;-63
2022/05/16 00:33:32;;;;;;;3.75;2.03;;;23.00;58.10;;;;;;5013564;28;20490;-64
2022/05/16 00:35:58;;;;;;;6.95;1.75;;;23.10;58.00;;;;;;5013163;28;20506;-63
2022/05/16 00:38:24;;;;;;;7.18;1.90;;;23.20;58.10;;;;;;5013009;28;20029;-63
2022/05/16 00:40:50;;;;;;;5.60;2.20;;;23.20;58.20;;;;;;5013238;28;20032;-60
2022/05/16 00:43:40;;;;;;;6.03;1.70;;;23.20;58.10;;;;;;5013354;28;20391;-62
2022/05/16 00:46:05;;;;;;;8.10;2.40;;;23.20;58.10;;;;;;5012221;28;20029;-62
2022/05/16 00:48:31;;;;;;;4.25;1.50;;;23.20;58.10;;;;;;5013241;28;20030;-59
2022/05/16 00:50:57;;;;;;;5.80;1.98;;;23.10;58.30;;;;;;5013289;28;20514;-63
2022/05/16 00:53:23;;;;;;;5.97;2.08;;;23.10;58.50;;;;;;5012116;28;20045;-63
2022/05/16 00:55:49;;;;;;;5.95;1.52;;;23.10;58.60;;;;;;5013097;28;20030;-61
2022/05/16 00:58:16;;;;;;;3.40;2.17;;;23.10;58.80;;;;;;5013167;28;20022;-64
2022/05/16 01:00:43;;;;;;;4.35;1.80;;;23.00;58.80;;;;;;5013346;28;20068;-62
2022/05/16 01:06:06;;;;;;;4.63;2.70;;;23.00;59.30;;;;;;5013505;28;20068;-64
2022/05/16 01:08:34;;;;;;;7.38;1.98;;;23.00;59.30;;;;;;5012689;28;20026;-64
2022/05/16 01:11:05;;;;;;;4.60;2.28;;;23.00;59.30;;;;;;5013236;28;20062;-64
2022/05/16 01:13:31;;;;;;;4.85;1.75;;;22.90;59.40;;;;;;5011919;28;20475;-64
2022/05/16 01:15:59;;;;;;;7.00;2.42;;;22.90;59.50;;;;;;5013118;28;20456;-63
2022/05/16 01:18:26;;;;;;;6.63;2.30;;;22.90;59.50;;;;;;5012954;28;20022;-63
2022/05/16 01:21:06;;;;;;;5.25;1.85;;;22.90;59.60;;;;;;5013118;28;20022;-59
2022/05/16 01:23:37;;;;;;;4.72;2.25;;;22.90;59.60;;;;;;5009597;28;20080;-62
2022/05/16 01:26:08;;;;;;;5.45;2.08;;;23.00;59.70;;;;;;5012702;28;20030;-63
2022/05/16 01:28:33;;;;;;;6.75;2.10;;;23.00;59.70;;;;;;5011621;28;20029;-63
2022/05/16 01:31:00;;;;;;;5.18;1.90;;;23.00;59.80;;;;;;5011615;28;20045;-59
2022/05/16 01:33:25;;;;;;;4.90;1.95;;;23.00;60.00;;;;;;5013019;28;20045;-60
2022/05/16 01:35:52;;;;;;;5.30;1.73;;;23.00;60.20;;;;;;5013007;28;20471;-64
2022/05/16 01:38:19;;;;;;;5.60;1.70;;;23.00;60.00;;;;;;5012504;28;20105;-61
2022/05/16 01:40:56;;;;;;;4.25;1.80;;;23.00;60.10;;;;;;5012632;28;20018;-62
2022/05/16 01:43:25;;;;;;;6.80;2.00;;;23.00;61.00;;;;;;5012830;28;20029;-63
2022/05/16 01:45:51;;;;;;;4.22;1.48;;;22.90;60.60;;;;;;5012888;28;20045;-63
2022/05/16 01:48:18;;;;;;;7.85;2.17;;;23.00;60.50;;;;;;5014158;28;20022;-63
2022/05/16 01:50:46;;;;;;;6.43;1.67;;;22.90;60.40;;;;;;5016431;28;20068;-63
2022/05/16 01:53:13;;;;;;;6.90;2.03;;;23.00;60.60;;;;;;5016042;28;20507;-64
2022/05/16 01:55:39;;;;;;;5.40;1.95;;;22.90;60.60;;;;;;5016266;28;20026;-64
2022/05/16 01:58:05;;;;;;;2.83;1.98;;;22.90;60.80;;;;;;5016196;28;20065;-63
2022/05/16 02:00:31;;;;;;;5.15;1.70;;;22.90;61.00;;;;;;5016289;28;20026;-63
2022/05/16 02:02:57;;;;;;;6.72;1.80;;;22.90;61.10;;;;;;5016172;28;20456;-63
2022/05/16 02:05:24;;;;;;;5.65;2.20;;;22.90;61.20;;;;;;5016060;28;20026;-63
2022/05/16 02:07:52;;;;;;;6.13;1.80;;;22.90;61.30;;;;;;5015951;28;20022;-63
2022/05/16 02:10:21;;;;;;;6.10;1.85;;;22.90;61.40;;;;;;5016077;28;20048;-63
2022/05/16 02:12:47;;;;;;;6.18;1.60;;;22.80;61.40;;;;;;5015979;28;20028;-63
2022/05/16 02:15:18;;;;;;;4.53;2.42;;;22.80;61.60;;;;;;5016067;28;20030;-63
2022/05/16 02:17:45;;;;;;;9.27;2.88;;;22.80;61.70;;;;;;5015982;28;20474;-63
2022/05/16 02:20:11;;;;;;;4.90;2.00;;;22.80;61.70;;;;;;5015791;28;20029;-63
2022/05/16 02:25:21;;;;;;;4.00;1.70;;;22.80;62.00;;;;;;5015628;28;20092;-63
2022/05/16 02:27:48;;;;;;;5.15;1.90;;;22.70;62.20;;;;;;5015577;28;20045;-62
2022/05/16 02:30:15;;;;;;;3.88;1.92;;;22.70;62.20;;;;;;5015537;28;20061;-64
2022/05/16 02:32:40;;;;;;;6.07;2.15;;;22.70;62.20;;;;;;5015597;28;20461;-63
2022/05/16 02:35:07;;;;;;;6.45;2.50;;;22.70;62.40;;;;;;5015668;28;20049;-64
2022/05/16 02:37:32;;;;;;;5.10;2.30;;;22.70;62.50;;;;;;5015185;28;20399;-64
2022/05/16 02:39:58;;;;;;;6.72;2.20;;;22.70;62.60;;;;;;5015228;28;20026;-63
2022/05/16 02:42:24;;;;;;;6.05;2.25;;;22.60;62.70;;;;;;5015680;28;20029;-65
2022/05/16 02:44:53;;;;;;;4.75;2.08;;;22.60;62.80;;;;;;5015448;28;20030;-63
2022/05/16 02:47:20;;;;;;;4.60;2.03;;;22.60;62.90;;;;;;5015462;28;20022;-63
2022/05/16 02:49:46;;;;;;;5.45;2.05;;;22.60;63.00;;;;;;5014890;28;20052;-63
2022/05/16 02:52:12;;;;;;;4.68;1.88;;;22.60;63.00;;;;;;5015215;28;20468;-63
2022/05/16 02:54:38;;;;;;;5.43;2.22;;;22.60;63.20;;;;;;5015391;28;20030;-64
2022/05/16 02:57:05;;;;;;;4.65;2.03;;;22.60;63.30;;;;;;5015043;28;20042;-64
2022/05/16 02:59:32;;;;;;;4.82;2.33;;;22.60;63.40;;;;;;5014420;28;20041;-64
2022/05/16 03:02:09;;;;;;;5.13;2.08;;;22.60;63.50;;;;;;5015224;28;20109;-64
2022/05/16 03:04:35;;;;;;;6.35;2.30;;;22.50;63.50;;;;;;5014568;28;20029;-63
2022/05/16 03:07:02;;;;;;;4.70;2.28;;;22.50;63.60;;;;;;5015032;28;20468;-63
2022/05/16 03:09:28;;;;;;;5.95;2.17;;;22.50;63.70;;;;;;5014932;28;20042;-63
2022/05/16 03:11:54;;;;;;;7.35;2.05;;;22.50;63.80;;;;;;5014989;28;20057;-63
2022/05/16 03:14:20;;;;;;;4.85;2.03;;;22.50;63.90;;;;;;5015078;28;20022;-63
2022/05/16 03:16:47;;;;;;;8.32;2.50;;;22.50;64.00;;;;;;5014669;28;20070;-63
2022/05/16 03:19:13;;;;;;;4.03;2.20;;;22.50;64.00;;;;;;5014479;28;20058;-63
2022/05/16 03:21:39;;;;;;;5.35;2.42;;;22.50;64.20;;;;;;5014722;28;20591;-64
2022/05/16 03:24:08;;;;;;;12.90;3.83;;;22.40;64.10;;;;;;5014682;28;20022;-61
2022/05/16 03:26:34;;;;;;;9.35;2.72;;;22.50;66.00;;;;;;5014492;28;20034;-61
2022/05/16 03:28:59;;;;;;;4.75;2.65;;;22.50;67.30;;;;;;5014492;28;20383;-60
2022/05/16 03:31:25;;;;;;;4.68;2.05;;;22.50;66.90;;;;;;5014526;28;20034;-61
2022/05/16 03:33:51;;;;;;;6.60;2.60;;;22.50;66.80;;;;;;5014380;28;20030;-59
2022/05/16 03:36:16;;;;;;;3.45;2.10;;;22.50;66.80;;;;;;5014604;28;20026;-60
2022/05/16 03:41:26;;;;;;;4.03;2.30;;;22.50;66.60;;;;;;5014302;28;20399;-60
2022/05/16 03:43:52;;;;;;;4.63;2.30;;;22.50;66.90;;;;;;5014245;28;20026;-57
2022/05/16 03:46:18;;;;;;;4.47;2.45;;;22.50;66.80;;;;;;5014521;28;20032;-61
2022/05/16 03:48:44;;;;;;;3.10;2.10;;;22.40;66.80;;;;;;5014285;28;20479;-60
2022/05/16 03:51:12;;;;;;;6.10;2.60;;;22.40;66.90;;;;;;5013976;28;20122;-61
2022/05/16 03:53:46;;;;;;;5.80;2.45;;;22.40;67.00;;;;;;5014380;28;20130;-61
2022/05/16 03:56:20;;;;;;;4.45;2.22;;;22.40;66.90;;;;;;5013951;28;20022;-60
2022/05/16 03:58:46;;;;;;;4.40;2.15;;;22.40;66.90;;;;;;5014164;28;20073;-60
2022/05/16 04:01:12;;;;;;;4.47;2.17;;;22.40;67.00;;;;;;5013944;28;20490;-60
2022/05/16 04:03:38;;;;;;;4.60;2.20;;;22.40;67.20;;;;;;5013968;28;20121;-61
2022/05/16 04:06:04;;;;;;;4.40;2.67;;;22.50;67.20;;;;;;5013654;28;20022;-61
2022/05/16 04:08:31;;;;;;;5.68;2.38;;;22.40;67.30;;;;;;5014064;28;20533;-60
2022/05/16 04:10:58;;;;;;;5.93;2.33;;;22.40;67.20;;;;;;5011946;28;20083;-61
2022/05/16 04:13:24;;;;;;;5.88;2.65;;;22.40;67.40;;;;;;5013575;28;20014;-61
2022/05/16 04:15:49;;;;;;;7.47;2.22;;;22.40;67.40;;;;;;5013890;28;20435;-60
2022/05/16 04:18:15;;;;;;;4.97;2.40;;;22.40;67.40;;;;;;5013427;28;20030;-61
2022/05/16 04:20:41;;;;;;;4.45;1.80;;;22.40;67.40;;;;;;5013779;28;20368;-60
2022/05/16 04:23:08;;;;;;;4.60;2.40;;;22.40;67.40;;;;;;5013743;28;20044;-60
2022/05/16 04:25:34;;;;;;;4.50;2.00;;;22.40;67.40;;;;;;5013405;28;20041;-58
2022/05/16 04:28:00;;;;;;;5.30;2.35;;;22.40;67.50;;;;;;5013611;28;20115;-59
2022/05/16 04:30:25;;;;;;;5.47;2.30;;;22.40;67.50;;;;;;5013489;28;20032;-61
2022/05/16 04:32:51;;;;;;;5.90;2.22;;;22.40;67.50;;;;;;5013253;28;20044;-58
2022/05/16 04:35:17;;;;;;;2.40;1.92;;;22.40;67.50;;;;;;5013594;28;20032;-61
2022/05/16 04:37:43;;;;;;;5.63;1.95;;;22.30;67.60;;;;;;5013346;28;20018;-61
2022/05/16 04:40:10;;;;;;;4.25;1.90;;;22.40;67.60;;;;;;5013397;28;20033;-61
2022/05/16 04:42:42;;;;;;;4.90;2.08;;;22.40;67.60;;;;;;5013400;28;20030;-61
2022/05/16 04:45:10;;;;;;;;;;;22.40;67.50;;;;;;5013854;28;20112;-61
2022/05/16 04:47:35;;;;;;;5.50;2.10;;;22.40;67.10;;;;;;5011218;28;20318;-57
2022/05/16 04:50:01;;;;;;;7.78;2.25;;;22.30;67.70;;;;;;5012167;28;20501;-60
2022/05/16 04:52:28;;;;;;;5.03;2.22;;;22.30;67.70;;;;;;5011763;28;20021;-60
2022/05/16 04:54:54;;;;;;;3.95;1.95;;;22.30;67.70;;;;;;5012969;28;20109;-60
2022/05/16 04:57:19;;;;;;;6.00;1.92;;;22.30;67.80;;;;;;5010442;28;20097;-61
2022/05/16 04:59:49;;;;;;;4.50;2.15;;;22.30;67.80;;;;;;5007006;28;20034;-61
2022/05/16 05:02:16;;;;;;;7.82;2.30;;;22.30;67.90;;;;;;5012418;28;20037;-63
2022/05/16 05:04:42;;;;;;;7.53;2.60;;;22.30;67.90;;;;;;5012952;28;20030;-63
2022/05/16 05:07:08;;;;;;;6.82;2.50;;;22.30;67.90;;;;;;4996318;28;20085;-59
2022/05/16 05:14:31;;;;;;;10.07;2.83;;;22.30;68.10;;;;;;4993879;28;20034;-60
2022/05/16 05:15:05;;;;;;;6.68;2.40;;;22.20;68.30;;;;;;5015114;28;20462;-63
2022/05/16 05:17:30;;;;;;;3.85;1.80;;;22.20;68.00;;;;;;5012294;28;20041;-60
2022/05/16 05:19:56;;;;;;;6.53;2.20;;;22.20;68.10;;;;;;5018231;28;20030;-62
2022/05/16 05:22:21;;;;;;;7.88;2.20;;;22.20;68.60;;;;;;4994085;28;20069;-63
2022/05/16 05:24:47;;;;;;;6.28;2.00;;;22.20;68.40;;;;;;4997011;28;20038;-64
2022/05/16 05:27:12;;;;;;;5.78;1.92;;;22.20;68.80;;;;;;4996635;28;20045;-63
2022/05/16 05:29:38;;;;;;;6.55;2.42;;;22.20;69.20;;;;;;4999549;28;20046;-63
2022/05/16 05:32:06;;;;;;;10.55;2.20;;;22.20;69.60;;;;;;5000502;28;20027;-64
2022/05/16 05:34:34;;;;;;;8.10;2.00;;;22.20;69.30;;;;;;4996925;28;20030;-60
2022/05/16 05:37:00;;;;;;;6.85;2.28;;;22.10;69.40;;;;;;5003829;28;20022;-63
2022/05/16 05:39:26;;;;;;;4.88;2.30;;;22.20;69.90;;;;;;4996382;28;20476;-61
2022/05/16 05:41:52;;;;;;;4.43;1.60;;;22.20;69.70;;;;;;5010091;28;20021;-60
2022/05/16 05:44:17;;;;;;;3.58;1.67;;;22.20;69.30;;;;;;5000326;28;20527;-59
2022/05/16 05:46:43;;;;;;;4.97;1.55;;;22.20;68.30;;;;;;5012677;28;20029;-62
2022/05/16 05:49:12;;;;;;;5.97;1.60;;;22.20;68.00;;;;;;5015843;28;20026;-60
2022/05/16 05:51:38;;;;;;;2.97;1.52;;;22.20;67.90;;;;;;5016269;28;20034;-60
2022/05/16 05:54:05;;;;;;;4.78;2.03;;;22.20;68.00;;;;;;5010827;28;20052;-60
2022/05/16 05:56:31;;;;;;;5.00;1.75;;;22.20;68.40;;;;;;5016188;28;20033;-60
2022/05/16 05:58:57;;;;;;;6.75;1.92;;;22.20;68.60;;;;;;5014312;28;20025;-59
2022/05/16 06:01:23;;;;;;;8.73;2.00;;;22.20;68.50;;;;;;5015699;28;20040;-60
2022/05/16 06:03:49;;;;;;;7.60;2.22;;;22.30;68.60;;;;;;5017768;28;20051;-59
2022/05/16 06:06:15;;;;;;;4.20;2.55;;;22.30;68.90;;;;;;5018679;28;20098;-60
2022/05/16 06:08:40;;;;;;;5.40;1.88;;;22.30;69.00;;;;;;5011599;28;20049;-59
2022/05/16 06:11:06;;;;;;;7.00;1.92;;;22.30;68.80;;;;;;5013708;28;20069;-60
2022/05/16 06:13:32;;;;;;;3.25;2.00;;;22.30;69.00;;;;;;5013204;28;20030;-61
2022/05/16 06:15:57;;;;;;;6.55;1.90;;;22.30;69.00;;;;;;5009731;28;20033;-62
2022/05/16 06:18:23;;;;;;;7.88;1.77;;;22.30;69.00;;;;;;5013363;28;20029;-61
2022/05/16 06:20:49;;;;;;;4.80;1.77;;;22.30;69.10;;;;;;5015726;28;20377;-60
2022/05/16 06:23:14;;;;;;;6.55;2.13;;;22.40;69.20;;;;;;5014432;28;20105;-63
2022/05/16 06:25:42;;;;;;;8.13;2.15;;;22.40;69.40;;;;;;5014600;28;20475;-60
2022/05/16 06:28:24;;;;;;;7.90;2.00;;;22.40;69.50;;;;;;5013608;28;20037;-60
2022/05/16 06:30:51;;;;;;;8.40;1.73;;;22.40;69.40;;;;;;5015510;28;20044;-60
2022/05/16 06:33:21;;;;;;;9.18;2.22;;;22.40;69.70;;;;;;5015933;28;20068;-59
2022/05/16 06:35:48;;;;;;;7.35;2.33;;;22.40;69.60;;;;;;5014584;28;20026;-59
2022/05/16 06:38:18;;;;;;;5.10;1.95;;;22.50;69.70;;;;;;5014156;28;20026;-60
2022/05/16 06:40:48;;;;;;;4.25;1.75;;;22.50;69.70;;;;;;5015419;28;20034;-60
2022/05/16 06:43:16;;;;;;;5.43;1.80;;;22.50;69.70;;;;;;5015491;28;20026;-63
2022/05/16 06:45:42;;;;;;;5.90;2.10;;;22.50;69.80;;;;;;5015285;28;20026;-59
2022/05/16 06:48:08;;;;;;;5.30;1.65;;;22.60;69.90;;;;;;5015490;28;20537;-60
2022/05/16 06:50:35;;;;;;;4.63;1.83;;;22.60;69.90;;;;;;5015113;28;20519;-61
2022/05/16 06:53:03;;;;;;;4.47;1.70;;;22.60;70.00;;;;;;5015210;28;20026;-60
2022/05/16 06:55:28;;;;;;;4.82;2.08;;;22.60;69.80;;;;;;5014909;28;20076;-60
2022/05/16 06:57:54;;;;;;;5.53;2.13;;;22.70;70.20;;;;;;5014855;28;20033;-60
2022/05/16 07:00:20;;;;;;;9.80;1.90;;;22.70;70.10;;;;;;5014946;28;20046;-59
2022/05/16 07:02:46;;;;;;;6.55;2.08;;;22.70;70.20;;;;;;5015251;28;20380;-61
2022/05/16 07:05:13;;;;;;;7.32;2.42;;;22.70;70.30;;;;;;5015155;28;20109;-62
2022/05/16 07:07:38;;;;;;;7.85;1.67;;;22.70;70.70;;;;;;5014926;28;20014;-59
2022/05/16 07:10:05;;;;;;;7.82;1.95;;;22.70;70.40;;;;;;5014742;28;20502;-60
2022/05/16 07:12:30;;;;;;;4.05;1.60;;;22.70;70.60;;;;;;5014612;28;20141;-59
2022/05/16 07:14:56;;;;;;;5.57;1.35;;;22.80;70.50;;;;;;5014818;28;20064;-60
2022/05/16 07:17:22;;;;;;;4.75;1.65;;;22.70;70.60;;;;;;5014878;28;20030;-60
2022/05/16 07:19:49;;;;;;;5.03;1.70;;;22.80;70.60;;;;;;5014892;28;20024;-60
2022/05/16 07:22:24;;;;;;;5.72;1.50;;;22.80;70.90;;;;;;5014489;28;20026;-60
2022/05/16 07:24:51;;;;;;;4.25;1.50;;;22.80;71.00;;;;;;5014710;28;20036;-60
2022/05/16 07:30:05;;;;;;;6.35;1.90;;;22.80;70.80;;;;;;5014657;28;20112;-60
2022/05/16 07:32:42;;;;;;;5.05;1.40;;;22.80;70.80;;;;;;5014293;28;20028;-63
2022/05/16 07:35:13;;;;;;;5.43;1.80;;;22.90;70.80;;;;;;5013301;28;20050;-59
2022/05/16 07:37:40;;;;;;;3.90;1.33;;;22.90;70.90;;;;;;5014637;28;20014;-60
2022/05/16 07:40:08;;;;;;;4.95;1.75;;;22.90;71.00;;;;;;5014052;28;20040;-63
2022/05/16 07:42:34;;;;;;;4.10;1.27;;;23.00;71.10;;;;;;5014319;28;20021;-60
2022/05/16 07:45:00;;;;;;;3.40;1.42;;;23.00;71.40;;;;;;5014339;28;20026;-60
2022/05/16 07:47:26;;;;;;;3.00;1.52;;;23.00;71.40;;;;;;5012808;28;20026;-59
2022/05/16 07:49:52;;;;;;;4.32;1.20;;;23.00;71.60;;;;;;5014119;28;20414;-60
2022/05/16 07:52:18;;;;;;;4.15;1.45;;;23.10;72.60;;;;;;5014069;28;20101;-59
2022/05/16 07:54:43;;;;;;;3.80;1.70;;;23.10;72.00;;;;;;5013917;28;20104;-59
2022/05/16 07:57:09;;;;;;;4.20;1.65;;;23.10;71.90;;;;;;5014033;28;20033;-59
2022/05/16 07:59:34;;;;;;;2.95;1.38;;;23.10;71.90;;;;;;5014182;28;20037;-60
2022/05/16 08:02:00;;;;;;;4.93;1.40;;;23.10;72.10;;;;;;5011840;28;20080;-60
2022/05/16 08:04:26;;;;;;;4.20;1.63;;;23.10;72.10;;;;;;5027911;28;20025;-59
2022/05/16 08:06:51;;;;;;;4.72;1.70;;;23.20;72.30;;;;;;5015957;28;20029;-62
2022/05/16 08:12:02;;;;;;;4.50;1.60;;;23.20;72.20;;;;;;5022811;28;20120;-63
2022/05/16 08:14:28;;;;;;;3.10;1.52;;;23.20;72.10;;;;;;5018937;28;20053;-62
2022/05/16 08:16:54;;;;;;;4.20;1.50;;;23.20;72.50;;;;;;5029053;28;20022;-60
2022/05/16 08:19:20;;;;;;;3.55;1.40;;;23.20;73.20;;;;;;5017454;28;20017;-64
2022/05/16 08:21:48;;;;;;;5.57;2.17;;;23.30;74.10;;;;;;5023907;28;20026;-62
2022/05/16 08:24:14;;;;;;;2.25;1.35;;;23.30;73.70;;;;;;5024386;28;20106;-60
2022/05/16 08:26:40;;;;;;;3.05;1.23;;;23.30;73.20;;;;;;5016936;28;20406;-59
2022/05/16 08:29:05;;;;;;;3.33;1.42;;;23.30;72.80;;;;;;5028855;28;20018;-60
2022/05/16 08:31:31;;;;;;;3.00;1.50;;;23.40;73.50;;;;;;5017160;28;20486;-60
2022/05/16 08:33:57;;;;;;;4.13;1.80;;;23.30;73.80;;;;;;5022122;28;20379;-60
2022/05/16 08:41:56;;;;;;;4.97;1.55;;;23.50;70.80;;;;;;5021284;28;20382;-60
2022/05/16 08:44:29;;;;;;;3.72;1.60;;;23.50;70.90;;;;;;5018874;28;20057;-60
2022/05/16 08:47:00;;;;;;;5.15;1.52;;;23.50;70.80;;;;;;5028723;28;20022;-60
2022/05/16 08:49:32;;;;;;;3.08;1.60;;;23.50;71.80;;;;;;5012758;28;20061;-59
2022/05/16 08:52:06;;;;;;;3.97;1.35;;;23.60;70.90;;;;;;5013114;28;20026;-64
2022/05/16 08:55:16;;;;;;;2.90;1.40;;;23.60;71.50;;;;;;5013243;28;20021;-63
2022/05/16 08:58:07;;;;;;;3.97;1.75;;;23.70;71.70;;;;;;5018124;28;20080;-64
2022/05/16 09:00:59;;;;;;;8.27;1.95;;;23.70;72.30;;;;;;5013505;28;20026;-62
2022/05/16 09:03:43;;;;;;;3.28;1.55;;;23.70;71.80;;;;;;5019463;28;20487;-61
2022/05/16 09:06:15;;;;;;;3.10;1.50;;;23.70;72.40;;;;;;5019788;28;20034;-65
2022/05/16 09:08:54;;;;;;;5.75;1.50;;;23.60;72.30;;;;;;5019053;28;20033;-61
2022/05/16 09:11:45;;;;;;;3.67;1.60;;;23.70;72.10;;;;;;5019712;28;20200;-64
2022/05/16 09:14:41;;;;;;;4.70;1.90;;;23.70;71.90;;;;;;5019757;28;20029;-62
2022/05/16 09:17:21;;;;;;;4.53;1.95;;;23.70;72.00;;;;;;5019674;28;20022;-61
2022/05/16 09:20:26;;;;;;;5.95;2.25;;;23.70;72.40;;;;;;5019374;28;20032;-64
2022/05/16 09:23:10;;;;;;;3.95;1.45;;;23.70;72.60;;;;;;5018040;28;20061;-65
2022/05/16 09:25:46;;;;;;;5.60;1.92;;;23.70;72.40;;;;;;5019419;28;20036;-65
2022/05/16 09:31:02;;;;;;;4.47;1.73;;;23.70;73.20;;;;;;5018891;28;20049;-64
2022/05/16 09:33:29;;;;;;;5.97;2.50;;;23.70;73.00;;;;;;5017849;28;20026;-64
2022/05/16 09:36:08;;;;;;;5.53;2.38;;;23.70;73.30;;;;;;5019179;28;20032;-65
2022/05/16 09:38:34;;;;;;;5.53;2.45;;;23.70;73.90;;;;;;5019318;28;20534;-63
2022/05/16 09:40:59;;;;;;;3.95;2.22;;;23.70;73.90;;;;;;5019070;28;20040;-64
2022/05/16 09:43:29;;;;;;;7.80;2.63;;;23.70;73.90;;;;;;5018810;28;20395;-63
2022/05/16 09:46:19;;;;;;;4.10;2.13;;;23.70;73.80;;;;;;5019545;28;20026;-65
2022/05/16 09:48:45;;;;;;;4.65;2.33;;;23.80;74.20;;;;;;5019579;28;20431;-65
2022/05/16 09:51:10;;;;;;;6.80;2.85;;;23.70;74.00;;;;;;5019025;28;20507;-61
2022/05/16 09:53:41;;;;;;;6.18;2.45;;;23.70;74.10;;;;;;5019316;28;20048;-60
2022/05/16 09:56:18;;;;;;;5.80;2.65;;;23.70;74.30;;;;;;5019314;28;20432;-59
2022/05/16 09:58:54;;;;;;;6.78;3.08;;;23.80;75.50;;;;;;5019164;28;20025;-60
2022/05/16 10:01:35;;;;;;;7.68;2.90;;;23.80;75.20;;;;;;5019063;28;20479;-61
2022/05/16 10:04:15;;;;;;;8.65;2.97;;;23.70;75.20;;;;;;5019089;28;20033;-60
2022/05/16 10:06:44;;;;;;;4.57;3.28;;;23.80;75.30;;;;;;5018854;28;20025;-64
2022/05/16 10:09:15;;;;;;;4.07;2.90;;;23.70;75.50;;;;;;5017821;28;20022;-61
2022/05/16 10:11:50;;;;;;;4.57;3.47;;;23.80;75.10;;;;;;5016149;28;20033;-63
2022/05/16 10:14:15;;;;;;;5.18;3.03;;;23.80;75.50;;;;;;5016138;28;20030;-64
2022/05/16 10:16:45;;;;;;;8.93;3.53;;;23.80;75.60;;;;;;5015901;28;20041;-64
2022/05/16 10:19:16;;;;;;;9.90;4.07;;;23.80;75.40;;;;;;5015855;28;20022;-65
2022/05/16 10:21:53;;;;;;;5.20;3.88;;;23.80;75.50;;;;;;5015887;28;20026;-65
2022/05/16 10:24:21;;;;;;;5.97;3.75;;;23.80;75.50;;;;;;5015839;28;20026;-64
2022/05/16 10:26:50;;;;;;;4.95;3.65;;;23.80;75.70;;;;;;5015742;28;20486;-64
2022/05/16 10:29:22;;;;;;;5.88;3.58;;;23.80;75.30;;;;;;5015514;28;20030;-64
2022/05/16 10:34:49;;;;;;;6.30;3.20;;;23.80;75.60;;;;;;5015647;28;20144;-65
2022/05/16 10:37:16;;;;;;;7.15;3.78;;;23.80;75.60;;;;;;5015553;28;20072;-61
2022/05/16 10:39:45;;;;;;;6.78;4.25;;;23.80;75.80;;;;;;5015425;28;20057;-64
2022/05/16 10:42:32;;;;;;;7.00;4.55;;;23.80;76.10;;;;;;5015719;28;20121;-60
2022/05/16 10:45:04;;;;;;;8.27;4.53;;;23.80;76.60;;;;;;5015485;28;20034;-60
2022/05/16 10:47:36;;;;;;;7.80;3.85;;;23.80;77.10;;;;;;5015537;28;20018;-60
2022/05/16 10:50:22;;;;;;;;;;;23.80;76.50;;;;;;5015293;28;20472;-65
2022/05/16 10:53:13;;;;;;;7.30;3.92;;;23.80;76.50;;;;;;5007963;28;19916;-63
2022/05/16 10:56:08;;;;;;;7.18;4.38;;;23.80;76.10;;;;;;5015131;28;20033;-65
2022/05/16 10:58:53;;;;;;;5.45;3.70;;;23.80;75.70;;;;;;5012541;28;20044;-64
2022/05/16 11:01:31;;;;;;;5.57;3.95;;;23.80;76.00;;;;;;5029300;28;20094;-60
2022/05/16 11:04:14;;;;;;;5.53;3.83;;;23.90;76.00;;;;;;5013748;28;20029;-63
2022/05/16 11:06:58;;;;;;;6.45;3.88;;;23.80;75.50;;;;;;5029095;28;20037;-63
2022/05/16 11:09:38;;;;;;;4.93;3.70;;;23.90;75.50;;;;;;5003358;28;20036;-60
2022/05/16 11:12:34;;;;;;;7.00;3.72;;;23.90;75.10;;;;;;5022092;28;20430;-60
2022/05/16 11:15:26;;;;;;;9.10;4.57;;;23.90;75.30;;;;;;5032997;28;20029;-64
2022/05/16 11:17:58;;;;;;;4.63;3.83;;;23.90;75.40;;;;;;5021845;28;20075;-60
2022/05/16 11:20:35;;;;;;;9.68;4.10;;;23.90;75.80;;;;;;5019356;28;20034;-61
2022/05/16 11:23:35;;;;;;;9.45;4.22;;;23.80;75.50;;;;;;5030179;28;20022;-60
2022/05/16 11:26:42;;;;;;;8.40;3.80;;;23.80;75.40;;;;;;5015221;28;20073;-60
2022/05/16 11:29:27;;;;;;;7.50;3.95;;;23.80;75.20;;;;;;5028792;28;20037;-60
2022/05/16 11:32:15;;;;;;;9.25;3.85;;;23.80;75.30;;;;;;5015152;28;20037;-60
2022/05/16 11:34:55;;;;;;;9.55;3.80;;;23.80;74.80;;;;;;5016398;28;20053;-62
2022/05/16 11:37:56;;;;;;;7.25;3.80;;;23.80;74.70;;;;;;5023791;28;20081;-61
2022/05/16 11:40:46;;;;;;;8.65;3.95;;;23.90;74.60;;;;;;5015610;28;20064;-62
2022/05/16 11:43:24;;;;;;;5.97;4.30;;;23.90;74.60;;;;;;5024734;28;20025;-64
2022/05/16 11:46:12;;;;;;;7.80;3.53;;;23.80;74.50;;;;;;5026486;28;20438;-62
2022/05/16 11:48:43;;;;;;;9.63;3.60;;;23.90;74.40;;;;;;5000485;28;20569;-61
2022/05/16 11:51:34;;;;;;;7.72;3.80;;;23.90;74.10;;;;;;5023251;28;20033;-63
2022/05/16 11:54:03;;;;;;;6.35;3.50;;;23.90;74.00;;;;;;5027035;28;20060;-61
2022/05/16 12:02:15;;;;;;;7.97;3.15;;;23.90;73.60;;;;;;5020770;28;20064;-60
2022/05/16 12:04:51;;;;;;;6.80;3.58;;;23.90;73.40;;;;;;4997336;28;20613;-62
2022/05/16 12:07:28;;;;;;;7.45;3.22;;;23.90;73.30;;;;;;5019685;28;20124;-60
2022/05/16 12:09:59;;;;;;;7.70;3.60;;;23.90;73.20;;;;;;5017919;28;20109;-60
2022/05/16 12:12:38;;;;;;;7.55;3.60;;;23.90;73.10;;;;;;5028817;28;20036;-60
2022/05/16 12:15:30;;;;;;;7.65;3.33;;;24.00;72.70;;;;;;5018288;28;20061;-64
2022/05/16 12:18:26;;;;;;;14.23;3.42;;;24.10;72.50;;;;;;4993226;28;20065;-60
2022/05/16 12:20:58;;;;;;;7.63;3.28;;;24.20;72.20;;;;;;4993875;28;20069;-60
2022/05/16 12:23:55;;;;;;;8.38;2.92;;;24.20;72.10;;;;;;4994014;28;20057;-60
2022/05/16 12:26:26;;;;;;;8.38;2.95;;;24.20;71.90;;;;;;4993513;28;20092;-61
2022/05/16 12:29:08;;;;;;;7.80;3.00;;;24.20;71.80;;;;;;5000974;28;20240;-60
2022/05/16 12:31:50;;;;;;;6.93;2.67;;;24.20;71.80;;;;;;5016058;28;20037;-60
2022/05/16 12:34:35;;;;;;;6.00;2.08;;;24.20;71.70;;;;;;5018847;28;20553;-60
2022/05/16 12:37:05;;;;;;;9.93;2.58;;;24.20;71.40;;;;;;5017774;28;20054;-61
2022/05/16 12:39:43;;;;;;;7.05;2.65;;;24.20;71.40;;;;;;5024842;28;20014;-61
2022/05/16 12:42:45;;;;;;;8.77;2.80;;;24.20;71.40;;;;;;5007807;28;20549;-61
2022/05/16 12:45:42;;;;;;;9.48;2.58;;;24.20;71.40;;;;;;5001079;28;20024;-61
2022/05/16 12:48:43;;;;;;;6.80;2.05;;;24.20;71.20;;;;;;5020216;28;20030;-61
2022/05/16 12:51:39;;;;;;;6.50;2.40;;;24.20;71.20;;;;;;4999097;28;20383;-60
2022/05/16 12:54:46;;;;;;;5.07;2.15;;;24.20;71.10;;;;;;5015138;28;20091;-60
2022/05/16 12:57:21;;;;;;;8.43;2.25;;;24.20;71.10;;;;;;5001437;28;20026;-60
2022/05/16 13:00:21;;;;;;;6.38;2.20;;;24.30;71.10;;;;;;5024160;28;20438;-65
2022/05/16 13:03:14;;;;;;;7.10;2.92;;;24.30;71.00;;;;;;5035980;28;20029;-61
2022/05/16 13:05:47;;;;;;;8.25;2.38;;;24.30;70.90;;;;;;5033274;28;20022;-61
2022/05/16 13:08:49;;;;;;;7.97;2.17;;;24.30;70.70;;;;;;5032680;28;20022;-60
2022/05/16 13:11:39;;;;;;;8.48;2.00;;;24.30;70.60;;;;;;5036418;28;20046;-60
2022/05/16 13:14:27;;;;;;;7.85;1.83;;;24.30;70.50;;;;;;5032515;28;20482;-60
2022/05/16 13:17:02;;;;;;;7.80;1.85;;;24.30;70.50;;;;;;5032867;28;20036;-60
2022/05/16 13:19:33;;;;;;;4.53;1.90;;;24.30;70.20;;;;;;5032862;28;20014;-60
2022/05/16 13:22:14;;;;;;;4.75;1.90;;;24.30;70.30;;;;;;5032735;28;20382;-61
2022/05/16 13:24:40;;;;;;;8.70;2.28;;;24.30;70.30;;;;;;5032610;28;20026;-61
2022/05/16 13:29:54;;;;;;;6.50;1.60;;;24.30;69.90;;;;;;5032537;28;20114;-60
2022/05/16 13:32:27;;;;;;;5.38;1.58;;;24.30;69.80;;;;;;5032563;28;20022;-60
2022/05/16 13:34:59;;;;;;;6.07;1.55;;;24.30;69.70;;;;;;5032891;28;20024;-60
2022/05/16 13:37:39;;;;;;;5.30;1.75;;;24.30;69.60;;;;;;5032901;28;20061;-60
2022/05/16 13:40:13;;;;;;;5.88;1.50;;;24.40;69.50;;;;;;5032722;28;20026;-60
2022/05/16 13:42:41;;;;;;;4.10;1.65;;;24.40;69.40;;;;;;5032536;28;20025;-61
2022/05/16 13:45:08;;;;;;;7.03;1.70;;;24.40;69.20;;;;;;5035455;28;20013;-60
2022/05/16 13:47:39;;;;;;;2.83;1.30;;;24.40;69.10;;;;;;5036546;28;20387;-60